sensor_id;sensor_type;location;lat;lon;timestamp;P1;durP1;ratioP1;P2;durP2;ratioP2
62401;SDS011;48440;51.224;22.506;2022-10-16T00:00:44;44.88;;;23.15;;
62401;SDS011;48440;51.224;22.506;2022-10-16T00:03:10;46.10;;;23.65;;
62401;SDS011;48440;51.224;22.506;2022-10-16T00:05:40;47.28;;;24.45;;
62401;SDS011;48440;51.224;22.506;2022-10-16T00:08:07;44.83;;;23.50;;
62401;SDS011;48440;51.224;22.506;2022-10-16T00:10:35;45.13;;;23.50;;
62401;SDS011;48440;51.224;22.506;2022-10-16T00:13:01;50.20;;;23.00;;
62401;SDS011;48440;51.224;22.506;2022-10-16T00:15:28;45.13;;;23.48;;
62401;SDS011;48440;51.224;22.506;2022-10-16T00:17:53;45.85;;;22.05;;
62401;SDS011;48440;51.224;22.506;2022-10-16T00:20:19;48.47;;;23.98;;
62401;SDS011;48440;51.224;22.506;2022-10-16T00:22:44;42.00;;;23.10;;
62401;SDS011;48440;51.224;22.506;2022-10-16T00:25:10;44.20;;;22.17;;
62401;SDS011;48440;51.224;22.506;2022-10-16T00:27:35;45.88;;;21.30;;
62401;SDS011;48440;51.224;22.506;2022-10-16T00:30:02;46.05;;;23.88;;
62401;SDS011;48440;51.224;22.506;2022-10-16T00:32:30;49.70;;;23.08;;
62401;SDS011;48440;51.224;22.506;2022-10-16T00:34:56;43.20;;;22.90;;
62401;SDS011;48440;51.224;22.506;2022-10-16T00:37:22;47.70;;;22.85;;
62401;SDS011;48440;51.224;22.506;2022-10-16T00:39:47;52.85;;;24.52;;
62401;SDS011;48440;51.224;22.506;2022-10-16T00:42:17;43.42;;;22.05;;
62401;SDS011;48440;51.224;22.506;2022-10-16T00:47:15;46.58;;;22.63;;
62401;SDS011;48440;51.224;22.506;2022-10-16T00:49:50;53.70;;;21.63;;
62401;SDS011;48440;51.224;22.506;2022-10-16T00:52:18;44.15;;;22.73;;
62401;SDS011;48440;51.224;22.506;2022-10-16T00:54:45;44.13;;;21.02;;
62401;SDS011;48440;51.224;22.506;2022-10-16T00:57:11;47.70;;;22.88;;
62401;SDS011;48440;51.224;22.506;2022-10-16T00:59:38;41.67;;;22.55;;
62401;SDS011;48440;51.224;22.506;2022-10-16T01:02:07;48.03;;;22.48;;
62401;SDS011;48440;51.224;22.506;2022-10-16T01:04:35;43.25;;;22.70;;
62401;SDS011;48440;51.224;22.506;2022-10-16T01:17:51;43.60;;;21.25;;
62401;SDS011;48440;51.224;22.506;2022-10-16T01:20:24;50.95;;;23.60;;
62401;SDS011;48440;51.224;22.506;2022-10-16T01:23:12;54.22;;;24.35;;
62401;SDS011;48440;51.224;22.506;2022-10-16T01:28:32;48.80;;;22.42;;
62401;SDS011;48440;51.224;22.506;2022-10-16T01:31:01;50.75;;;23.67;;
62401;SDS011;48440;51.224;22.506;2022-10-16T01:33:35;51.90;;;25.27;;
62401;SDS011;48440;51.224;22.506;2022-10-16T01:36:13;50.03;;;23.55;;
62401;SDS011;48440;51.224;22.506;2022-10-16T01:38:42;51.67;;;24.90;;
62401;SDS011;48440;51.224;22.506;2022-10-16T01:41:14;55.28;;;24.42;;
62401;SDS011;48440;51.224;22.506;2022-10-16T01:43:46;57.40;;;24.77;;
62401;SDS011;48440;51.224;22.506;2022-10-16T01:46:18;46.55;;;23.45;;
62401;SDS011;48440;51.224;22.506;2022-10-16T01:48:47;48.20;;;24.33;;
62401;SDS011;48440;51.224;22.506;2022-10-16T01:51:19;46.00;;;23.63;;
62401;SDS011;48440;51.224;22.506;2022-10-16T01:53:49;57.05;;;23.33;;
62401;SDS011;48440;51.224;22.506;2022-10-16T01:56:20;48.35;;;22.92;;
62401;SDS011;48440;51.224;22.506;2022-10-16T01:59:30;47.30;;;23.63;;
62401;SDS011;48440;51.224;22.506;2022-10-16T02:01:47;46.90;;;23.02;;
62401;SDS011;48440;51.224;22.506;2022-10-16T02:06:43;51.40;;;23.80;;
62401;SDS011;48440;51.224;22.506;2022-10-16T02:09:09;49.10;;;23.33;;
62401;SDS011;48440;51.224;22.506;2022-10-16T02:11:34;50.08;;;23.48;;
62401;SDS011;48440;51.224;22.506;2022-10-16T02:14:06;49.28;;;23.95;;
62401;SDS011;48440;51.224;22.506;2022-10-16T02:16:36;49.45;;;24.42;;
62401;SDS011;48440;51.224;22.506;2022-10-16T02:19:04;50.67;;;24.83;;
62401;SDS011;48440;51.224;22.506;2022-10-16T02:21:32;44.80;;;24.67;;
62401;SDS011;48440;51.224;22.506;2022-10-16T02:30:00;48.42;;;23.17;;
62401;SDS011;48440;51.224;22.506;2022-10-16T02:32:33;54.53;;;24.73;;
62401;SDS011;48440;51.224;22.506;2022-10-16T02:35:02;55.05;;;25.30;;
62401;SDS011;48440;51.224;22.506;2022-10-16T02:37:29;49.65;;;24.67;;
62401;SDS011;48440;51.224;22.506;2022-10-16T02:39:57;58.28;;;23.77;;
62401;SDS011;48440;51.224;22.506;2022-10-16T02:42:27;52.20;;;23.75;;
62401;SDS011;48440;51.224;22.506;2022-10-16T02:44:55;56.25;;;24.90;;
62401;SDS011;48440;51.224;22.506;2022-10-16T02:47:20;50.50;;;25.83;;
62401;SDS011;48440;51.224;22.506;2022-10-16T02:49:46;49.45;;;24.55;;
62401;SDS011;48440;51.224;22.506;2022-10-16T02:52:12;49.15;;;24.15;;
62401;SDS011;48440;51.224;22.506;2022-10-16T02:54:38;45.67;;;24.02;;
62401;SDS011;48440;51.224;22.506;2022-10-16T02:57:03;56.10;;;23.98;;
62401;SDS011;48440;51.224;22.506;2022-10-16T02:59:29;55.45;;;24.67;;
62401;SDS011;48440;51.224;22.506;2022-10-16T03:01:54;51.45;;;23.30;;
62401;SDS011;48440;51.224;22.506;2022-10-16T03:04:20;52.58;;;25.52;;
62401;SDS011;48440;51.224;22.506;2022-10-16T03:06:45;48.80;;;25.00;;
62401;SDS011;48440;51.224;22.506;2022-10-16T03:09:11;50.22;;;24.88;;
62401;SDS011;48440;51.224;22.506;2022-10-16T03:11:36;52.88;;;24.20;;
62401;SDS011;48440;51.224;22.506;2022-10-16T03:14:02;49.58;;;23.63;;
62401;SDS011;48440;51.224;22.506;2022-10-16T03:16:28;48.38;;;24.33;;
62401;SDS011;48440;51.224;22.506;2022-10-16T03:18:54;49.38;;;24.30;;
62401;SDS011;48440;51.224;22.506;2022-10-16T03:21:19;54.00;;;24.50;;
62401;SDS011;48440;51.224;22.506;2022-10-16T03:23:45;50.53;;;24.45;;
62401;SDS011;48440;51.224;22.506;2022-10-16T03:26:11;50.20;;;23.25;;
62401;SDS011;48440;51.224;22.506;2022-10-16T03:28:38;52.17;;;24.83;;
62401;SDS011;48440;51.224;22.506;2022-10-16T03:31:03;50.40;;;25.35;;
62401;SDS011;48440;51.224;22.506;2022-10-16T03:33:29;52.75;;;24.13;;
62401;SDS011;48440;51.224;22.506;2022-10-16T03:35:55;55.90;;;24.08;;
62401;SDS011;48440;51.224;22.506;2022-10-16T03:38:21;52.20;;;24.52;;
62401;SDS011;48440;51.224;22.506;2022-10-16T03:40:47;51.53;;;23.60;;
62401;SDS011;48440;51.224;22.506;2022-10-16T03:43:13;49.80;;;25.42;;
62401;SDS011;48440;51.224;22.506;2022-10-16T03:45:38;55.67;;;25.88;;
62401;SDS011;48440;51.224;22.506;2022-10-16T03:48:05;55.13;;;24.48;;
62401;SDS011;48440;51.224;22.506;2022-10-16T03:50:31;56.42;;;24.02;;
62401;SDS011;48440;51.224;22.506;2022-10-16T03:52:56;48.25;;;23.38;;
62401;SDS011;48440;51.224;22.506;2022-10-16T03:55:22;55.25;;;24.52;;
62401;SDS011;48440;51.224;22.506;2022-10-16T03:57:48;50.08;;;24.98;;
62401;SDS011;48440;51.224;22.506;2022-10-16T04:00:13;49.17;;;24.77;;
62401;SDS011;48440;51.224;22.506;2022-10-16T04:02:39;48.03;;;23.52;;
62401;SDS011;48440;51.224;22.506;2022-10-16T04:05:06;50.15;;;24.83;;
62401;SDS011;48440;51.224;22.506;2022-10-16T04:07:32;50.85;;;23.25;;
62401;SDS011;48440;51.224;22.506;2022-10-16T04:09:57;51.58;;;25.10;;
62401;SDS011;48440;51.224;22.506;2022-10-16T04:12:25;55.42;;;24.85;;
62401;SDS011;48440;51.224;22.506;2022-10-16T04:14:51;49.53;;;24.17;;
62401;SDS011;48440;51.224;22.506;2022-10-16T04:17:16;53.45;;;24.30;;
62401;SDS011;48440;51.224;22.506;2022-10-16T04:19:42;54.67;;;25.10;;
62401;SDS011;48440;51.224;22.506;2022-10-16T04:22:08;49.65;;;24.33;;
62401;SDS011;48440;51.224;22.506;2022-10-16T04:24:35;50.65;;;23.90;;
62401;SDS011;48440;51.224;22.506;2022-10-16T04:27:00;54.70;;;24.30;;
62401;SDS011;48440;51.224;22.506;2022-10-16T04:29:26;52.30;;;24.10;;
62401;SDS011;48440;51.224;22.506;2022-10-16T04:31:52;49.33;;;24.58;;
62401;SDS011;48440;51.224;22.506;2022-10-16T04:34:18;50.72;;;25.35;;
62401;SDS011;48440;51.224;22.506;2022-10-16T04:36:43;50.78;;;24.60;;
62401;SDS011;48440;51.224;22.506;2022-10-16T04:39:11;53.63;;;26.20;;
62401;SDS011;48440;51.224;22.506;2022-10-16T04:41:37;58.28;;;25.10;;
62401;SDS011;48440;51.224;22.506;2022-10-16T04:44:02;53.28;;;23.33;;
62401;SDS011;48440;51.224;22.506;2022-10-16T04:46:28;54.85;;;24.88;;
62401;SDS011;48440;51.224;22.506;2022-10-16T04:48:54;53.00;;;25.98;;
62401;SDS011;48440;51.224;22.506;2022-10-16T04:51:19;57.85;;;24.63;;
62401;SDS011;48440;51.224;22.506;2022-10-16T04:53:45;52.38;;;25.10;;
62401;SDS011;48440;51.224;22.506;2022-10-16T04:56:11;59.17;;;26.05;;
62401;SDS011;48440;51.224;22.506;2022-10-16T04:58:37;62.75;;;26.05;;
62401;SDS011;48440;51.224;22.506;2022-10-16T05:01:02;55.85;;;27.10;;
62401;SDS011;48440;51.224;22.506;2022-10-16T05:03:28;57.92;;;25.55;;
62401;SDS011;48440;51.224;22.506;2022-10-16T05:05:55;52.22;;;24.35;;
62401;SDS011;48440;51.224;22.506;2022-10-16T05:08:22;47.97;;;23.45;;
62401;SDS011;48440;51.224;22.506;2022-10-16T05:10:47;61.92;;;26.38;;
62401;SDS011;48440;51.224;22.506;2022-10-16T05:13:13;50.20;;;26.17;;
62401;SDS011;48440;51.224;22.506;2022-10-16T05:15:42;52.83;;;25.10;;
62401;SDS011;48440;51.224;22.506;2022-10-16T05:18:12;58.38;;;26.85;;
62401;SDS011;48440;51.224;22.506;2022-10-16T05:20:38;66.57;;;26.17;;
62401;SDS011;48440;51.224;22.506;2022-10-16T05:23:04;57.78;;;26.15;;
62401;SDS011;48440;51.224;22.506;2022-10-16T05:25:30;52.05;;;25.40;;
62401;SDS011;48440;51.224;22.506;2022-10-16T05:27:55;53.50;;;25.77;;
62401;SDS011;48440;51.224;22.506;2022-10-16T05:30:21;58.38;;;26.55;;
62401;SDS011;48440;51.224;22.506;2022-10-16T05:32:48;59.35;;;26.40;;
62401;SDS011;48440;51.224;22.506;2022-10-16T05:35:17;54.40;;;24.83;;
62401;SDS011;48440;51.224;22.506;2022-10-16T05:37:43;59.97;;;25.23;;
62401;SDS011;48440;51.224;22.506;2022-10-16T05:40:09;58.85;;;26.02;;
62401;SDS011;48440;51.224;22.506;2022-10-16T05:42:35;63.13;;;26.33;;
62401;SDS011;48440;51.224;22.506;2022-10-16T05:45:01;56.25;;;25.45;;
62401;SDS011;48440;51.224;22.506;2022-10-16T05:47:26;59.53;;;25.25;;
62401;SDS011;48440;51.224;22.506;2022-10-16T05:49:52;54.22;;;25.92;;
62401;SDS011;48440;51.224;22.506;2022-10-16T05:52:18;64.70;;;26.42;;
62401;SDS011;48440;51.224;22.506;2022-10-16T05:54:44;57.85;;;25.73;;
62401;SDS011;48440;51.224;22.506;2022-10-16T05:57:09;62.38;;;28.60;;
62401;SDS011;48440;51.224;22.506;2022-10-16T05:59:35;59.50;;;27.92;;
62401;SDS011;48440;51.224;22.506;2022-10-16T06:02:01;64.93;;;26.20;;
62401;SDS011;48440;51.224;22.506;2022-10-16T06:04:26;62.08;;;26.70;;
62401;SDS011;48440;51.224;22.506;2022-10-16T06:06:53;63.50;;;26.20;;
62401;SDS011;48440;51.224;22.506;2022-10-16T06:09:18;62.60;;;26.80;;
62401;SDS011;48440;51.224;22.506;2022-10-16T06:11:44;62.88;;;28.30;;
62401;SDS011;48440;51.224;22.506;2022-10-16T06:14:09;66.22;;;26.90;;
62401;SDS011;48440;51.224;22.506;2022-10-16T06:16:35;66.60;;;29.58;;
62401;SDS011;48440;51.224;22.506;2022-10-16T06:19:03;69.60;;;27.63;;
62401;SDS011;48440;51.224;22.506;2022-10-16T06:21:31;56.55;;;26.65;;
62401;SDS011;48440;51.224;22.506;2022-10-16T06:23:57;63.70;;;27.80;;
62401;SDS011;48440;51.224;22.506;2022-10-16T06:26:25;68.88;;;27.23;;
62401;SDS011;48440;51.224;22.506;2022-10-16T06:28:56;58.67;;;26.45;;
62401;SDS011;48440;51.224;22.506;2022-10-16T06:31:23;64.25;;;25.75;;
62401;SDS011;48440;51.224;22.506;2022-10-16T06:33:52;61.20;;;27.70;;
62401;SDS011;48440;51.224;22.506;2022-10-16T06:36:19;76.25;;;26.67;;
62401;SDS011;48440;51.224;22.506;2022-10-16T06:38:45;65.97;;;27.67;;
62401;SDS011;48440;51.224;22.506;2022-10-16T06:41:12;67.93;;;27.88;;
62401;SDS011;48440;51.224;22.506;2022-10-16T06:43:46;62.38;;;27.63;;
62401;SDS011;48440;51.224;22.506;2022-10-16T06:46:13;58.20;;;26.70;;
62401;SDS011;48440;51.224;22.506;2022-10-16T06:48:40;79.63;;;27.58;;
62401;SDS011;48440;51.224;22.506;2022-10-16T06:53:38;62.92;;;26.77;;
62401;SDS011;48440;51.224;22.506;2022-10-16T06:56:13;66.25;;;28.65;;
62401;SDS011;48440;51.224;22.506;2022-10-16T06:58:41;71.85;;;27.42;;
62401;SDS011;48440;51.224;22.506;2022-10-16T07:01:08;62.55;;;26.55;;
62401;SDS011;48440;51.224;22.506;2022-10-16T07:03:36;71.10;;;27.38;;
62401;SDS011;48440;51.224;22.506;2022-10-16T07:06:04;64.43;;;27.00;;
62401;SDS011;48440;51.224;22.506;2022-10-16T07:08:32;73.45;;;27.58;;
62401;SDS011;48440;51.224;22.506;2022-10-16T07:11:02;69.22;;;26.73;;
62401;SDS011;48440;51.224;22.506;2022-10-16T07:13:30;66.03;;;27.20;;
62401;SDS011;48440;51.224;22.506;2022-10-16T07:15:58;57.95;;;25.85;;
62401;SDS011;48440;51.224;22.506;2022-10-16T07:18:39;61.42;;;28.08;;
62401;SDS011;48440;51.224;22.506;2022-10-16T07:23:32;60.17;;;27.05;;
62401;SDS011;48440;51.224;22.506;2022-10-16T07:25:58;57.65;;;26.35;;
62401;SDS011;48440;51.224;22.506;2022-10-16T07:28:27;63.35;;;26.98;;
62401;SDS011;48440;51.224;22.506;2022-10-16T07:30:55;64.55;;;27.38;;
62401;SDS011;48440;51.224;22.506;2022-10-16T07:33:36;68.18;;;26.08;;
62401;SDS011;48440;51.224;22.506;2022-10-16T07:36:03;75.18;;;26.98;;
62401;SDS011;48440;51.224;22.506;2022-10-16T07:38:29;60.60;;;27.33;;
62401;SDS011;48440;51.224;22.506;2022-10-16T07:40:55;98.22;;;29.23;;
62401;SDS011;48440;51.224;22.506;2022-10-16T07:43:25;56.05;;;26.17;;
62401;SDS011;48440;51.224;22.506;2022-10-16T07:45:53;63.67;;;26.38;;
62401;SDS011;48440;51.224;22.506;2022-10-16T07:48:38;69.65;;;27.65;;
62401;SDS011;48440;51.224;22.506;2022-10-16T07:51:10;70.97;;;26.50;;
62401;SDS011;48440;51.224;22.506;2022-10-16T07:53:37;65.97;;;27.05;;
62401;SDS011;48440;51.224;22.506;2022-10-16T07:56:06;66.03;;;26.25;;
62401;SDS011;48440;51.224;22.506;2022-10-16T07:58:33;54.13;;;25.60;;
62401;SDS011;48440;51.224;22.506;2022-10-16T08:01:05;47.20;;;25.02;;
62401;SDS011;48440;51.224;22.506;2022-10-16T08:03:32;56.42;;;24.55;;
62401;SDS011;48440;51.224;22.506;2022-10-16T08:05:58;54.35;;;23.60;;
62401;SDS011;48440;51.224;22.506;2022-10-16T08:08:25;52.53;;;24.90;;
62401;SDS011;48440;51.224;22.506;2022-10-16T08:10:51;51.97;;;23.63;;
62401;SDS011;48440;51.224;22.506;2022-10-16T08:13:17;46.13;;;23.08;;
62401;SDS011;48440;51.224;22.506;2022-10-16T08:15:43;46.75;;;23.42;;
62401;SDS011;48440;51.224;22.506;2022-10-16T08:18:09;53.03;;;23.83;;
62401;SDS011;48440;51.224;22.506;2022-10-16T08:20:36;47.83;;;22.00;;
62401;SDS011;48440;51.224;22.506;2022-10-16T08:23:02;45.28;;;23.15;;
62401;SDS011;48440;51.224;22.506;2022-10-16T08:25:28;46.05;;;21.73;;
62401;SDS011;48440;51.224;22.506;2022-10-16T08:27:54;45.35;;;21.33;;
62401;SDS011;48440;51.224;22.506;2022-10-16T08:30:20;39.78;;;20.77;;
62401;SDS011;48440;51.224;22.506;2022-10-16T08:32:47;42.63;;;22.17;;
62401;SDS011;48440;51.224;22.506;2022-10-16T08:35:12;41.42;;;19.83;;
62401;SDS011;48440;51.224;22.506;2022-10-16T08:37:39;41.58;;;21.48;;
62401;SDS011;48440;51.224;22.506;2022-10-16T08:40:05;38.30;;;19.88;;
62401;SDS011;48440;51.224;22.506;2022-10-16T08:50:48;36.03;;;19.67;;
62401;SDS011;48440;51.224;22.506;2022-10-16T09:18:53;41.63;;;20.23;;
62401;SDS011;48440;51.224;22.506;2022-10-16T09:21:29;37.47;;;21.05;;
62401;SDS011;48440;51.224;22.506;2022-10-16T09:24:00;46.45;;;22.08;;
62401;SDS011;48440;51.224;22.506;2022-10-16T09:26:37;43.20;;;22.65;;
62401;SDS011;48440;51.224;22.506;2022-10-16T09:29:03;42.58;;;21.33;;
62401;SDS011;48440;51.224;22.506;2022-10-16T09:31:28;46.38;;;22.52;;
62401;SDS011;48440;51.224;22.506;2022-10-16T09:33:58;48.47;;;21.52;;
62401;SDS011;48440;51.224;22.506;2022-10-16T09:39:05;51.25;;;23.45;;
62401;SDS011;48440;51.224;22.506;2022-10-16T09:41:52;46.85;;;23.40;;
62401;SDS011;48440;51.224;22.506;2022-10-16T09:44:30;45.90;;;23.77;;
62401;SDS011;48440;51.224;22.506;2022-10-16T09:47:20;52.53;;;23.20;;
62401;SDS011;48440;51.224;22.506;2022-10-16T09:50:05;51.40;;;21.73;;
62401;SDS011;48440;51.224;22.506;2022-10-16T09:53:18;46.58;;;23.25;;
62401;SDS011;48440;51.224;22.506;2022-10-16T09:55:55;48.35;;;22.17;;
62401;SDS011;48440;51.224;22.506;2022-10-16T10:04:02;43.05;;;23.27;;
62401;SDS011;48440;51.224;22.506;2022-10-16T10:06:30;42.45;;;22.08;;
62401;SDS011;48440;51.224;22.506;2022-10-16T10:14:31;48.00;;;21.70;;
62401;SDS011;48440;51.224;22.506;2022-10-16T10:33:54;47.75;;;21.52;;
62401;SDS011;48440;51.224;22.506;2022-10-16T10:36:56;52.78;;;22.83;;
62401;SDS011;48440;51.224;22.506;2022-10-16T10:58:27;44.63;;;21.65;;
62401;SDS011;48440;51.224;22.506;2022-10-16T11:01:12;44.13;;;22.65;;
62401;SDS011;48440;51.224;22.506;2022-10-16T11:03:46;46.92;;;22.20;;
62401;SDS011;48440;51.224;22.506;2022-10-16T11:06:40;41.83;;;20.67;;
62401;SDS011;48440;51.224;22.506;2022-10-16T11:09:16;45.92;;;20.60;;
62401;SDS011;48440;51.224;22.506;2022-10-16T16:40:26;39.78;;;20.95;;
62401;SDS011;48440;51.224;22.506;2022-10-16T16:50:50;42.05;;;22.38;;
62401;SDS011;48440;51.224;22.506;2022-10-16T17:27:30;45.95;;;20.55;;
62401;SDS011;48440;51.224;22.506;2022-10-16T20:08:26;39.78;;;18.88;;
62401;SDS011;48440;51.224;22.506;2022-10-16T20:42:50;41.35;;;19.02;;
62401;SDS011;48440;51.224;22.506;2022-10-16T20:45:18;44.25;;;19.67;;
62401;SDS011;48440;51.224;22.506;2022-10-16T20:47:44;39.33;;;19.30;;
62401;SDS011;48440;51.224;22.506;2022-10-16T20:50:19;37.58;;;19.65;;
62401;SDS011;48440;51.224;22.506;2022-10-16T20:53:27;42.63;;;18.83;;
62401;SDS011;48440;51.224;22.506;2022-10-16T20:55:52;43.70;;;21.13;;
62401;SDS011;48440;51.224;22.506;2022-10-16T20:58:18;46.60;;;23.25;;
62401;SDS011;48440;51.224;22.506;2022-10-16T21:00:45;41.85;;;20.25;;
62401;SDS011;48440;51.224;22.506;2022-10-16T21:03:11;37.58;;;18.65;;
62401;SDS011;48440;51.224;22.506;2022-10-16T21:05:40;47.22;;;19.70;;
62401;SDS011;48440;51.224;22.506;2022-10-16T21:08:06;37.20;;;19.25;;
62401;SDS011;48440;51.224;22.506;2022-10-16T21:10:32;41.05;;;18.77;;
62401;SDS011;48440;51.224;22.506;2022-10-16T21:13:14;40.10;;;18.92;;
62401;SDS011;48440;51.224;22.506;2022-10-16T21:16:00;37.63;;;18.35;;
62401;SDS011;48440;51.224;22.506;2022-10-16T21:18:32;38.22;;;18.55;;
62401;SDS011;48440;51.224;22.506;2022-10-16T21:20:58;38.00;;;18.67;;
62401;SDS011;48440;51.224;22.506;2022-10-16T21:23:24;41.92;;;20.10;;
62401;SDS011;48440;51.224;22.506;2022-10-16T21:25:50;38.70;;;19.88;;
62401;SDS011;48440;51.224;22.506;2022-10-16T21:28:16;34.95;;;19.17;;
62401;SDS011;48440;51.224;22.506;2022-10-16T21:30:43;33.92;;;18.88;;
62401;SDS011;48440;51.224;22.506;2022-10-16T21:33:21;40.47;;;19.77;;
62401;SDS011;48440;51.224;22.506;2022-10-16T21:35:48;39.28;;;17.88;;
62401;SDS011;48440;51.224;22.506;2022-10-16T21:38:14;36.92;;;18.52;;
62401;SDS011;48440;51.224;22.506;2022-10-16T21:40:42;42.13;;;18.45;;
62401;SDS011;48440;51.224;22.506;2022-10-16T21:43:16;34.53;;;18.63;;
62401;SDS011;48440;51.224;22.506;2022-10-16T21:46:32;33.58;;;17.83;;
62401;SDS011;48440;51.224;22.506;2022-10-16T21:54:23;40.13;;;18.58;;
62401;SDS011;48440;51.224;22.506;2022-10-16T21:57:06;42.88;;;19.00;;
62401;SDS011;48440;51.224;22.506;2022-10-16T22:15:17;32.72;;;18.95;;
62401;SDS011;48440;51.224;22.506;2022-10-16T22:46:39;40.70;;;17.85;;
62401;SDS011;48440;51.224;22.506;2022-10-16T23:08:29;46.97;;;19.15;;
62401;SDS011;48440;51.224;22.506;2022-10-16T23:13:55;35.60;;;18.02;;
62401;SDS011;48440;51.224;22.506;2022-10-16T23:16:36;35.80;;;17.10;;
62401;SDS011;48440;51.224;22.506;2022-10-16T23:21:56;33.88;;;17.25;;
62401;SDS011;48440;51.224;22.506;2022-10-16T23:24:37;35.95;;;17.55;;
62401;SDS011;48440;51.224;22.506;2022-10-16T23:27:07;29.73;;;16.92;;
62401;SDS011;48440;51.224;22.506;2022-10-16T23:29:33;37.10;;;17.35;;
62401;SDS011;48440;51.224;22.506;2022-10-16T23:31:59;36.40;;;17.90;;
62401;SDS011;48440;51.224;22.506;2022-10-16T23:42:16;32.35;;;17.05;;
62401;SDS011;48440;51.224;22.506;2022-10-16T23:44:56;31.40;;;16.92;;
62401;SDS011;48440;51.224;22.506;2022-10-16T23:50:04;31.63;;;16.60;;
62401;SDS011;48440;51.224;22.506;2022-10-16T23:55:13;37.10;;;17.92;;
62401;SDS011;48440;51.224;22.506;2022-10-16T23:57:40;30.05;;;16.33;;
